Time;durP1;ratioP1;P1;durP2;ratioP2;P2;SDS_P1;SDS_P2;PMS_P1;PMS_P2;Temp;Humidity;BMP_temperature;BMP_pressure;BME280_temperature;BME280_humidity;BME280_pressure;Samples;Min_cycle;Max_cycle;Signal;HPM_P1;HPM_P2
2023/01/26 00:00:32;;;;;;;;;;;;;;;;;;4997724;28;7254;-69
2023/01/26 00:02:57;;;;;;;;;;;;;;;;;;4996757;28;6924;-69
2023/01/26 00:05:38;;;;;;;;;;;;;;;;;;4996641;28;7171;-69
2023/01/26 00:08:03;;;;;;;;;;;;;;;;;;4997019;28;7130;-69
2023/01/26 00:13:33;;;;;;;;;;;;;;;;;;4996616;28;6963;-69
2023/01/26 00:16:35;;;;;;;;;;;;;;;;;;4996818;28;7252;-69
2023/01/26 00:19:02;;;;;;;;;;;;;;;;;;4997248;28;6916;-69
2023/01/26 00:21:28;;;;;;;;;;;;;;;;;;4997721;28;6958;-69
2023/01/26 00:23:53;;;;;;;;;;;;;;;;;;4996641;28;7462;-69
2023/01/26 00:26:38;;;;;;;;;;;;;;;;;;4997233;28;7060;-69
2023/01/26 00:29:04;;;;;;;;;;;;;;;;;;4996117;28;8923;-69
2023/01/26 00:31:29;;;;;;;;;;;;;;;;;;4996549;28;7211;-69
2023/01/26 00:36:57;;;;;;;;;;;;;;;;;;4996246;28;6901;-69
2023/01/26 00:39:23;;;;;;;;;;;;;;;;;;4978920;28;6974;-69
2023/01/26 00:48:02;;;;;;;;;;;;;;;;;;4996310;28;6916;-69
2023/01/26 00:50:28;;;;;;;;;;;;;;;;;;4996155;28;7169;-69
2023/01/26 00:52:54;;;;;;;;;;;;;;;;;;4996625;28;7202;-69
2023/01/26 00:55:20;;;;;;;;;;;;;;;;;;4996153;28;7568;-69
2023/01/26 00:58:03;;;;;;;;;;;;;;;;;;4996042;28;7187;-69
2023/01/26 01:00:30;;;;;;;;;;;;;;;;;;4995884;28;7180;-69
2023/01/26 01:03:15;;;;;;;;;;;;;;;;;;4995894;28;7146;-69
2023/01/26 01:05:41;;;;;;;;;;;;;;;;;;4995906;28;7880;-69
2023/01/26 01:08:07;;;;;;;;;;;;;;;;;;4995585;28;7253;-69
2023/01/26 01:10:39;;;;;;;;;;;;;;;;;;4995723;28;7396;-69
2023/01/26 01:13:05;;;;;;;;;;;;;;;;;;4995765;28;7084;-69
2023/01/26 01:15:30;;;;;;;;;;;;;;;;;;4995818;28;7065;-69
2023/01/26 01:17:55;;;;;;;;;;;;;;;;;;4995763;28;7113;-69
2023/01/26 01:20:21;;;;;;;;;;;;;;;;;;4995625;28;7154;-69
2023/01/26 01:23:04;;;;;;;;;;;;;;;;;;4977522;28;8469;-69
2023/01/26 01:25:29;;;;;;;;;;;;;;;;;;4995649;28;7164;-69
2023/01/26 01:27:55;;;;;;;;;;;;;;;;;;4979152;28;8700;-69
2023/01/26 01:30:40;;;;;;;;;;;;;;;;;;4995518;28;7184;-69
2023/01/26 01:33:05;;;;;;;;;;;;;;;;;;4995543;28;7170;-69
2023/01/26 01:35:34;;;;;;;;;;;;;;;;;;4995468;28;7169;-69
2023/01/26 01:38:06;;;;;;;;;;;;;;;;;;4995625;28;7167;-69
2023/01/26 01:40:31;;;;;;;;;;;;;;;;;;4995499;28;7186;-69
2023/01/26 01:42:57;;;;;;;;;;;;;;;;;;4988125;28;7390;-69
2023/01/26 01:45:25;;;;;;;;;;;;;;;;;;4995925;28;7209;-69
2023/01/26 01:47:56;;;;;;;;;;;;;;;;;;4995474;28;7143;-69
2023/01/26 01:50:42;;;;;;;;;;;;;;;;;;4995401;28;7181;-69
2023/01/26 01:53:11;;;;;;;;;;;;;;;;;;4995288;28;7111;-69
2023/01/26 01:55:44;;;;;;;;;;;;;;;;;;4995382;28;7037;-69
2023/01/26 01:58:11;;;;;;;;;;;;;;;;;;4995820;28;7164;-69
2023/01/26 02:00:36;;;;;;;;;;;;;;;;;;4995829;28;7074;-69
2023/01/26 02:08:43;;;;;;;;;;;;;;;;;;4995196;28;6972;-69
2023/01/26 02:11:37;;;;;;;;;;;;;;;;;;4995257;28;7369;-69
2023/01/26 02:14:06;;;;;;;;;;;;;;;;;;4995185;28;7191;-69
2023/01/26 02:16:31;;;;;;;;;;;;;;;;;;4995148;28;7137;-69
2023/01/26 02:22:07;;;;;;;;;;;;;;;;;;4994771;28;6682;-69
2023/01/26 02:25:06;;;;;;;;;;;;;;;;;;4995396;28;7165;-69
2023/01/26 02:27:33;;;;;;;;;;;;;;;;;;4995068;28;7393;-69
2023/01/26 02:30:01;;;;;;;;;;;;;;;;;;4994909;28;7494;-69
2023/01/26 02:32:29;;;;;;;;;;;;;;;;;;4996183;28;7118;-69
2023/01/26 02:34:55;;;;;;;;;;;;;;;;;;4998801;28;6997;-69
2023/01/26 02:37:21;;;;;;;;;;;;;;;;;;4999063;28;7489;-69
2023/01/26 02:45:52;;;;;;;;;;;;;;;;;;4998348;28;6937;-69
2023/01/26 02:49:45;;;;;;;;;;;;;;;;;;4999471;28;7386;-69
2023/01/26 03:00:16;;;;;;;;;;;;;;;;;;4998072;28;6674;-69
2023/01/26 03:03:03;;;;;;;;;;;;;;;;;;4998129;28;7252;-69
2023/01/26 03:05:28;;;;;;;;;;;;;;;;;;4997805;28;9088;-69
2023/01/26 03:07:54;;;;;;;;;;;;;;;;;;4997870;28;7169;-69
2023/01/26 03:13:22;;;;;;;;;;;;;;;;;;4997751;28;6925;-69
2023/01/26 03:15:53;;;;;;;;;;;;;;;;;;4997999;28;7134;-69
2023/01/26 03:27:38;;;;;;;;;;;;;;;;;;4997692;28;6686;-69
2023/01/26 03:36:09;;;;;;;;;;;;;;;;;;4997325;28;6686;-68
2023/01/26 03:38:34;;;;;;;;;;;;;;;;;;4997586;28;7039;-68
2023/01/26 03:58:28;;;;;;;;;;;;;;;;;;4997615;28;6789;-68
2023/01/26 04:00:55;;;;;;;;;;;;;;;;;;4997921;28;7175;-69
2023/01/26 04:08:58;;;;;;;;;;;;;;;;;;4997332;28;6769;-68
2023/01/26 04:11:24;;;;;;;;;;;;;;;;;;4996867;28;7138;-68
2023/01/26 04:22:44;;;;;;;;;;;;;;;;;;4996750;28;6670;-69
2023/01/26 04:25:12;;;;;;;;;;;;;;;;;;4996661;28;7140;-69
2023/01/26 04:30:56;;;;;;;;;;;;;;;;;;4996633;28;6912;-68
2023/01/26 04:33:21;;;;;;;;;;;;;;;;;;4996415;28;7164;-68
2023/01/26 04:35:47;;;;;;;;;;;;;;;;;;4996501;28;7078;-68
2023/01/26 04:38:35;;;;;;;;;;;;;;;;;;4996475;28;7132;-68
2023/01/26 04:41:01;;;;;;;;;;;;;;;;;;4997227;28;6905;-68
2023/01/26 04:43:50;;;;;;;;;;;;;;;;;;4995741;28;7047;-69
2023/01/26 04:46:16;;;;;;;;;;;;;;;;;;4996278;28;7085;-69
2023/01/26 04:48:42;;;;;;;;;;;;;;;;;;4995915;28;7071;-69
2023/01/26 04:51:15;;;;;;;;;;;;;;;;;;4996808;28;7068;-69
2023/01/26 04:53:41;;;;;;;;;;;;;;;;;;4995990;28;6959;-69
2023/01/26 04:56:10;;;;;;;;;;;;;;;;;;4995253;28;7248;-69
2023/01/26 04:58:35;;;;;;;;;;;;;;;;;;4996002;28;7148;-69
2023/01/26 05:01:01;;;;;;;;;;;;;;;;;;4997147;28;7079;-69
2023/01/26 05:06:29;;;;;;;;;;;;;;;;;;4996111;28;6698;-69
2023/01/26 05:08:56;;;;;;;;;;;;;;;;;;4996015;28;7176;-69
2023/01/26 05:11:22;;;;;;;;;;;;;;;;;;4995789;28;6985;-69
2023/01/26 05:16:50;;;;;;;;;;;;;;;;;;4995813;28;6932;-69
2023/01/26 05:22:19;;;;;;;;;;;;;;;;;;4995343;28;6932;-69
2023/01/26 05:24:45;;;;;;;;;;;;;;;;;;4996502;28;7109;-69
2023/01/26 05:30:10;;;;;;;;;;;;;;;;;;4995432;28;6796;-69
2023/01/26 05:32:35;;;;;;;;;;;;;;;;;;4996303;28;7050;-69
2023/01/26 05:35:02;;;;;;;;;;;;;;;;;;4995583;28;7095;-69
2023/01/26 05:37:33;;;;;;;;;;;;;;;;;;4995465;28;7363;-69
2023/01/26 05:39:59;;;;;;;;;;;;;;;;;;4995090;28;7174;-69
2023/01/26 05:42:26;;;;;;;;;;;;;;;;;;4995353;28;7196;-69
2023/01/26 05:44:52;;;;;;;;;;;;;;;;;;4981319;28;7129;-69
2023/01/26 05:47:18;;;;;;;;;;;;;;;;;;4995421;28;6940;-69
2023/01/26 05:49:45;;;;;;;;;;;;;;;;;;4995340;28;7131;-69
2023/01/26 05:52:45;;;;;;;;;;;;;;;;;;4995345;28;7114;-69
2023/01/26 05:55:12;;;;;;;;;;;;;;;;;;4995258;28;7127;-69
2023/01/26 05:57:37;;;;;;;;;;;;;;;;;;4995317;28;7388;-69
2023/01/26 06:00:04;;;;;;;;;;;;;;;;;;4995253;28;7213;-69
2023/01/26 06:02:29;;;;;;;;;;;;;;;;;;4995200;28;7216;-69
2023/01/26 06:07:58;;;;;;;;;;;;;;;;;;4996536;28;6685;-69
2023/01/26 06:10:53;;;;;;;;;;;;;;;;;;4999097;28;7074;-69
2023/01/26 06:13:19;;;;;;;;;;;;;;;;;;4998999;28;7304;-69
2023/01/26 06:15:45;;;;;;;;;;;;;;;;;;4999136;28;7130;-69
2023/01/26 06:18:32;;;;;;;;;;;;;;;;;;4999029;28;7188;-72
2023/01/26 06:20:59;;;;;;;;;;;;;;;;;;4998934;28;7056;-69
2023/01/26 06:23:25;;;;;;;;;;;;;;;;;;4998250;28;7510;-69
2023/01/26 06:25:51;;;;;;;;;;;;;;;;;;4997815;28;7381;-68
2023/01/26 06:28:21;;;;;;;;;;;;;;;;;;4998824;28;7152;-68
2023/01/26 06:30:46;;;;;;;;;;;;;;;;;;4998856;28;7604;-68
2023/01/26 06:33:12;;;;;;;;;;;;;;;;;;4998744;28;6949;-68
2023/01/26 06:35:37;;;;;;;;;;;;;;;;;;4998820;28;7512;-68
2023/01/26 06:38:03;;;;;;;;;;;;;;;;;;4998290;28;6921;-68
2023/01/26 06:40:28;;;;;;;;;;;;;;;;;;4998349;28;6923;-68
2023/01/26 06:42:55;;;;;;;;;;;;;;;;;;4998428;28;7374;-68
2023/01/26 06:45:28;;;;;;;;;;;;;;;;;;4998471;28;7092;-68
2023/01/26 06:47:54;;;;;;;;;;;;;;;;;;4998442;28;7555;-68
2023/01/26 06:50:25;;;;;;;;;;;;;;;;;;4998362;28;7235;-68
2023/01/26 06:52:53;;;;;;;;;;;;;;;;;;4998317;28;7073;-68
2023/01/26 06:55:35;;;;;;;;;;;;;;;;;;4998365;28;7178;-68
2023/01/26 06:58:24;;;;;;;;;;;;;;;;;;4998221;28;7455;-68
2023/01/26 07:00:50;;;;;;;;;;;;;;;;;;4998186;28;7019;-69
2023/01/26 07:05:50;;;;;;;;;;;;;;;;;;5016358;28;7452;-69
2023/01/26 07:08:16;;;;;;;;;;;;;;;;;;5018147;28;7344;-69
2023/01/26 07:11:05;;;;;;;;;;;;;;;;;;5017699;28;7294;-69
2023/01/26 07:13:31;;;;;;;;;;;;;;;;;;5017209;28;7200;-69
2023/01/26 07:16:04;;;;;;;;;;;;;;;;;;5017551;28;7329;-68
2023/01/26 07:21:34;;;;;;;;;;;;;;;;;;5017412;28;6935;-69
2023/01/26 07:24:20;;;;;;;;;;;;;;;;;;5017011;28;6960;-68
2023/01/26 07:26:46;;;;;;;;;;;;;;;;;;5017790;28;6966;-69
2023/01/26 07:29:12;;;;;;;;;;;;;;;;;;5017158;28;7361;-68
2023/01/26 07:31:54;;;;;;;;;;;;;;;;;;5017646;28;7009;-66
2023/01/26 07:34:20;;;;;;;;;;;;;;;;;;5017973;28;7421;-66
2023/01/26 07:36:46;;;;;;;;;;;;;;;;;;5016846;28;6969;-67
2023/01/26 07:39:11;;;;;;;;;;;;;;;;;;5017212;28;7122;-67
2023/01/26 07:41:37;;;;;;;;;;;;;;;;;;5017457;28;7417;-67
2023/01/26 07:44:15;;;;;;;;;;;;;;;;;;5017193;28;7030;-67
2023/01/26 07:46:41;;;;;;;;;;;;;;;;;;5017094;28;7129;-67
2023/01/26 07:49:06;;;;;;;;;;;;;;;;;;5017779;28;7051;-67
2023/01/26 07:54:35;;;;;;;;;;;;;;;;;;5016735;28;6681;-67
2023/01/26 07:57:00;;;;;;;;;;;;;;;;;;5016850;28;7253;-67
2023/01/26 08:02:31;;;;;;;;;;;;;;;;;;5016513;28;6997;-67
2023/01/26 08:04:59;;;;;;;;;;;;;;;;;;5016860;28;7157;-67
2023/01/26 08:07:24;;;;;;;;;;;;;;;;;;5016582;28;7590;-67
2023/01/26 08:09:50;;;;;;;;;;;;;;;;;;5016483;28;6994;-67
2023/01/26 08:12:16;;;;;;;;;;;;;;;;;;5016556;28;7285;-67
2023/01/26 08:14:41;;;;;;;;;;;;;;;;;;5016668;28;7237;-67
2023/01/26 08:17:37;;;;;;;;;;;;;;;;;;5016569;28;7218;-67
2023/01/26 08:20:03;;;;;;;;;;;;;;;;;;5016385;28;7211;-67
2023/01/26 08:22:29;;;;;;;;;;;;;;;;;;4998554;28;8703;-67
2023/01/26 08:24:55;;;;;;;;;;;;;;;;;;5016280;28;7018;-67
2023/01/26 08:27:21;;;;;;;;;;;;;;;;;;5016345;28;7030;-67
2023/01/26 08:30:10;;;;;;;;;;;;;;;;;;5015867;28;7104;-67
2023/01/26 08:32:36;;;;;;;;;;;;;;;;;;5016090;28;7181;-67
2023/01/26 08:35:02;;;;;;;;;;;;;;;;;;5015823;28;7364;-67
2023/01/26 08:38:05;;;;;;;;;;;;;;;;;;5016595;28;9099;-67
2023/01/26 08:40:31;;;;;;;;;;;;;;;;;;5016040;28;6957;-67
2023/01/26 08:46:08;;;;;;;;;;;;;;;;;;5015665;28;6714;-67
2023/01/26 08:48:34;;;;;;;;;;;;;;;;;;5015746;28;7151;-67
2023/01/26 08:51:02;;;;;;;;;;;;;;;;;;5015762;28;7367;-67
2023/01/26 08:53:37;;;;;;;;;;;;;;;;;;5015602;28;7201;-67
2023/01/26 08:56:05;;;;;;;;;;;;;;;;;;5015655;28;7247;-67
2023/01/26 08:58:32;;;;;;;;;;;;;;;;;;5015646;28;7193;-67
2023/01/26 09:01:13;;;;;;;;;;;;;;;;;;5015694;28;7169;-67
2023/01/26 09:03:51;;;;;;;;;;;;;;;;;;5015312;28;7361;-67
2023/01/26 09:06:17;;;;;;;;;;;;;;;;;;5015447;28;7134;-67
2023/01/26 09:08:43;;;;;;;;;;;;;;;;;;5015547;28;7175;-67
2023/01/26 09:14:11;;;;;;;;;;;;;;;;;;5015451;28;6904;-67
2023/01/26 09:16:36;;;;;;;;;;;;;;;;;;5016459;28;7098;-67
2023/01/26 09:19:02;;;;;;;;;;;;;;;;;;5015218;28;7090;-67
2023/01/26 09:21:27;;;;;;;;;;;;;;;;;;5014891;28;7154;-67
2023/01/26 09:23:54;;;;;;;;;;;;;;;;;;5015327;28;7125;-67
2023/01/26 09:26:20;;;;;;;;;;;;;;;;;;5015244;28;6940;-67
2023/01/26 09:28:48;;;;;;;;;;;;;;;;;;5014914;28;7160;-67
2023/01/26 09:31:14;;;;;;;;;;;;;;;;;;5012118;28;6949;-67
2023/01/26 09:33:50;;;;;;;;;;;;;;;;;;5011477;28;7361;-67
2023/01/26 09:36:16;;;;;;;;;;;;;;;;;;5000566;28;7215;-68
2023/01/26 09:51:00;;;;;;;;;;;;;;;;;;5014523;28;7013;-68
2023/01/26 09:53:32;;;;;;;;;;;;;;;;;;5014395;28;7193;-68
2023/01/26 09:55:58;;;;;;;;;;;;;;;;;;5015085;28;7178;-69
2023/01/26 09:58:51;;;;;;;;;;;;;;;;;;5014453;28;6940;-69
2023/01/26 10:01:49;;;;;;;;;;;;;;;;;;5014595;28;7060;-69
2023/01/26 10:07:18;;;;;;;;;;;;;;;;;;5051386;23;6960;-70
2023/01/26 10:09:49;;;;;;;;;;;;;;;;;;4994608;28;6936;-70
2023/01/26 10:15:24;;;;;;;;;;;;;;;;;;4995067;28;6959;-70
2023/01/26 10:20:55;;;;;;;;;;;;;;;;;;4994828;28;7410;-70
2023/01/26 10:29:27;;;;;;;;;;;;;;;;;;4994802;28;7390;-70
2023/01/26 10:31:54;;;;;;;;;;;;;;;;;;4995436;28;7407;-70
2023/01/26 10:34:25;;;;;;;;;;;;;;;;;;4995403;28;7197;-70
2023/01/26 10:36:57;;;;;;;;;;;;;;;;;;4994814;28;6952;-70
2023/01/26 10:39:45;;;;;;;;;;;;;;;;;;4994934;28;7042;-70
2023/01/26 10:42:46;;;;;;;;;;;;;;;;;;4994888;28;7258;-71
2023/01/26 10:45:26;;;;;;;;;;;;;;;;;;4994814;28;6902;-70
2023/01/26 10:48:25;;;;;;;;;;;;;;;;;;4994461;28;7228;-71
2023/01/26 10:51:22;;;;;;;;;;;;;;;;;;4953991;29;6933;-69
2023/01/26 10:53:48;;;;;;;;;;;;;;;;;;4955313;28;7599;-71
2023/01/26 10:56:19;;;;;;;;;;;;;;;;;;4957243;28;7041;-69
2023/01/26 10:59:01;;;;;;;;;;;;;;;;;;4957359;28;7028;-69
2023/01/26 11:01:27;;;;;;;;;;;;;;;;;;4957450;28;7005;-69
2023/01/26 11:04:06;;;;;;;;;;;;;;;;;;5110662;23;6874;-69
2023/01/26 11:06:33;;;;;;;;;;;;;;;;;;5016498;28;8428;-70
2023/01/26 11:09:28;;;;;;;;;;;;;;;;;;4984153;28;8461;-71
2023/01/26 11:12:05;;;;;;;;;;;;;;;;;;4996742;28;7252;-71
2023/01/26 11:14:31;;;;;;;;;;;;;;;;;;5017366;28;7472;-71
2023/01/26 11:17:00;;;;;;;;;;;;;;;;;;5017587;28;7227;-71
2023/01/26 11:19:42;;;;;;;;;;;;;;;;;;5018210;28;7114;-71
2023/01/26 11:22:15;;;;;;;;;;;;;;;;;;5018189;28;7197;-71
2023/01/26 11:24:50;;;;;;;;;;;;;;;;;;5017295;28;7197;-71
2023/01/26 11:27:19;;;;;;;;;;;;;;;;;;5017464;28;6992;-71
2023/01/26 11:30:03;;;;;;;;;;;;;;;;;;5000166;28;8443;-71
2023/01/26 11:32:47;;;;;;;;;;;;;;;;;;5017091;28;7122;-71
2023/01/26 11:35:32;;;;;;;;;;;;;;;;;;5017336;28;7181;-71
2023/01/26 11:38:00;;;;;;;;;;;;;;;;;;5017205;28;7275;-71
2023/01/26 11:40:58;;;;;;;;;;;;;;;;;;5017223;28;7206;-71
2023/01/26 11:43:58;;;;;;;;;;;;;;;;;;4956548;28;7686;-71
2023/01/26 11:47:03;;;;;;;;;;;;;;;;;;4956622;28;7066;-71
2023/01/26 11:49:28;;;;;;;;;;;;;;;;;;4955790;28;7076;-71
2023/01/26 11:58:30;;;;;;;;;;;;;;;;;;4941018;28;6691;-71
2023/01/26 12:01:00;;;;;;;;;;;;;;;;;;4943917;28;7191;-71
2023/01/26 12:03:31;;;;;;;;;;;;;;;;;;4956056;28;7043;-71
2023/01/26 12:06:01;;;;;;;;;;;;;;;;;;4955713;28;7273;-71
2023/01/26 12:08:37;;;;;;;;;;;;;;;;;;4956298;28;7158;-71
2023/01/26 12:11:24;;;;;;;;;;;;;;;;;;4956177;28;7186;-71
2023/01/26 12:14:26;;;;;;;;;;;;;;;;;;4953569;28;7225;-71
2023/01/26 12:16:57;;;;;;;;;;;;;;;;;;4955848;28;7179;-71
2023/01/26 12:19:39;;;;;;;;;;;;;;;;;;4995199;28;7329;-71
2023/01/26 12:34:31;;;;;;;;;;;;;;;;;;5015894;28;6758;-71
2023/01/26 12:37:05;;;;;;;;;;;;;;;;;;5016000;28;6902;-71
2023/01/26 12:48:57;;;;;;;;;;;;;;;;;;5004755;28;6970;-71
2023/01/26 12:51:28;;;;;;;;;;;;;;;;;;4996052;28;6975;-71
2023/01/26 12:54:03;;;;;;;;;;;;;;;;;;4996140;28;7234;-71
2023/01/26 12:56:47;;;;;;;;;;;;;;;;;;5013289;28;7176;-71
2023/01/26 13:05:53;;;;;;;;;;;;;;;;;;5015034;28;6692;-71
2023/01/26 13:08:31;;;;;;;;;;;;;;;;;;5015596;28;6971;-71
2023/01/26 13:11:08;;;;;;;;;;;;;;;;;;5015430;28;7132;-71
2023/01/26 13:13:54;;;;;;;;;;;;;;;;;;5015403;28;7075;-71
2023/01/26 13:19:47;;;;;;;;;;;;;;;;;;5015199;28;6694;-71
2023/01/26 13:22:34;;;;;;;;;;;;;;;;;;5014813;28;8657;-72
2023/01/26 13:25:26;;;;;;;;;;;;;;;;;;5002045;28;7242;-72
2023/01/26 13:27:56;;;;;;;;;;;;;;;;;;5013612;28;7086;-72
2023/01/26 13:30:22;;;;;;;;;;;;;;;;;;5015022;28;7181;-72
2023/01/26 13:32:47;;;;;;;;;;;;;;;;;;5015046;28;6997;-72
2023/01/26 13:35:16;;;;;;;;;;;;;;;;;;5014798;28;7015;-72
2023/01/26 13:41:03;;;;;;;;;;;;;;;;;;5014793;28;6932;-71
2023/01/26 13:43:34;;;;;;;;;;;;;;;;;;5015686;28;7870;-71
2023/01/26 13:46:37;;;;;;;;;;;;;;;;;;5014943;28;7141;-71
2023/01/26 13:49:02;;;;;;;;;;;;;;;;;;5015029;28;7705;-71
2023/01/26 13:51:31;;;;;;;;;;;;;;;;;;5015155;28;7131;-71
2023/01/26 13:54:27;;;;;;;;;;;;;;;;;;5014942;28;7378;-71
2023/01/26 13:57:00;;;;;;;;;;;;;;;;;;5014275;28;7396;-71
2023/01/26 13:59:25;;;;;;;;;;;;;;;;;;5013487;28;7269;-71
2023/01/26 14:01:53;;;;;;;;;;;;;;;;;;5015089;28;6965;-72
2023/01/26 14:04:36;;;;;;;;;;;;;;;;;;5014688;28;7003;-72
2023/01/26 14:07:09;;;;;;;;;;;;;;;;;;5014682;28;8354;-72
2023/01/26 14:09:44;;;;;;;;;;;;;;;;;;5014574;28;7164;-72
2023/01/26 14:12:17;;;;;;;;;;;;;;;;;;5015005;28;6990;-72
2023/01/26 14:14:47;;;;;;;;;;;;;;;;;;5014636;28;7250;-72
2023/01/26 14:23:17;;;;;;;;;;;;;;;;;;5014534;28;7057;-72
2023/01/26 14:25:57;;;;;;;;;;;;;;;;;;5014480;28;7989;-72
2023/01/26 14:34:30;;;;;;;;;;;;;;;;;;5018226;28;6966;-72
2023/01/26 14:37:14;;;;;;;;;;;;;;;;;;5018332;28;6953;-72
2023/01/26 14:39:43;;;;;;;;;;;;;;;;;;5018092;28;7119;-72
2023/01/26 14:42:39;;;;;;;;;;;;;;;;;;5018011;28;7455;-72
2023/01/26 14:45:04;;;;;;;;;;;;;;;;;;5018068;28;7050;-72
2023/01/26 14:47:32;;;;;;;;;;;;;;;;;;5017891;28;7423;-72
2023/01/26 14:50:06;;;;;;;;;;;;;;;;;;5017905;28;7648;-72
2023/01/26 14:52:37;;;;;;;;;;;;;;;;;;5017888;28;7234;-72
2023/01/26 14:55:27;;;;;;;;;;;;;;;;;;5017798;28;6964;-72
2023/01/26 14:57:54;;;;;;;;;;;;;;;;;;5017775;28;7450;-72
2023/01/26 15:00:27;;;;;;;;;;;;;;;;;;5017846;28;7206;-72
2023/01/26 15:02:55;;;;;;;;;;;;;;;;;;5017279;28;6956;-72
2023/01/26 15:05:22;;;;;;;;;;;;;;;;;;5008971;28;7038;-72
2023/01/26 15:08:10;;;;;;;;;;;;;;;;;;5017549;28;7222;-72
2023/01/26 15:10:40;;;;;;;;;;;;;;;;;;5017585;28;7116;-72
2023/01/26 15:13:14;;;;;;;;;;;;;;;;;;5017502;28;7187;-72
2023/01/26 15:16:00;;;;;;;;;;;;;;;;;;5017594;28;7503;-72
2023/01/26 15:18:30;;;;;;;;;;;;;;;;;;5017501;28;6972;-72
2023/01/26 15:20:59;;;;;;;;;;;;;;;;;;5017678;28;7174;-72
2023/01/26 15:23:56;;;;;;;;;;;;;;;;;;5017560;28;7180;-72
2023/01/26 15:26:22;;;;;;;;;;;;;;;;;;4997925;28;6946;-72
2023/01/26 15:28:52;;;;;;;;;;;;;;;;;;4997682;28;6919;-72
2023/01/26 15:31:27;;;;;;;;;;;;;;;;;;4997532;28;7965;-72
2023/01/26 15:33:54;;;;;;;;;;;;;;;;;;4997942;28;7382;-72
2023/01/26 15:39:22;;;;;;;;;;;;;;;;;;5037282;23;6936;-71
2023/01/26 15:42:15;;;;;;;;;;;;;;;;;;5016739;28;7462;-71
2023/01/26 15:44:41;;;;;;;;;;;;;;;;;;5033146;28;7071;-72
2023/01/26 15:47:11;;;;;;;;;;;;;;;;;;5027640;28;6954;-72
2023/01/26 15:55:43;;;;;;;;;;;;;;;;;;5016567;28;7018;-72
2023/01/26 15:58:09;;;;;;;;;;;;;;;;;;5016600;28;7225;-72
2023/01/26 16:00:35;;;;;;;;;;;;;;;;;;5016853;28;7321;-72
2023/01/26 16:03:16;;;;;;;;;;;;;;;;;;5016660;28;7064;-72
2023/01/26 16:05:43;;;;;;;;;;;;;;;;;;5016844;28;6983;-72
2023/01/26 16:11:17;;;;;;;;;;;;;;;;;;5016672;28;6904;-72
2023/01/26 16:13:45;;;;;;;;;;;;;;;;;;5016413;28;7195;-72
2023/01/26 16:16:14;;;;;;;;;;;;;;;;;;5016491;28;7112;-72
2023/01/26 16:18:41;;;;;;;;;;;;;;;;;;5016424;28;7054;-72
2023/01/26 16:21:22;;;;;;;;;;;;;;;;;;5016214;28;6925;-72
2023/01/26 16:23:48;;;;;;;;;;;;;;;;;;5017170;28;7462;-72
2023/01/26 16:26:15;;;;;;;;;;;;;;;;;;5016245;28;7037;-72
2023/01/26 16:28:58;;;;;;;;;;;;;;;;;;5017644;28;6954;-72
2023/01/26 16:31:26;;;;;;;;;;;;;;;;;;5035700;28;7225;-72
2023/01/26 16:33:51;;;;;;;;;;;;;;;;;;5035835;28;7001;-72
2023/01/26 16:39:20;;;;;;;;;;;;;;;;;;5015826;28;6743;-72
2023/01/26 16:45:19;;;;;;;;;;;;;;;;;;5015735;28;6710;-72
2023/01/26 16:47:47;;;;;;;;;;;;;;;;;;5015782;28;7089;-72
2023/01/26 16:50:15;;;;;;;;;;;;;;;;;;5015927;28;7228;-72
2023/01/26 16:52:41;;;;;;;;;;;;;;;;;;5015165;28;7157;-72
2023/01/26 17:01:20;;;;;;;;;;;;;;;;;;5015346;28;7072;-72
2023/01/26 17:03:47;;;;;;;;;;;;;;;;;;5016368;28;6963;-72
2023/01/26 17:09:29;;;;;;;;;;;;;;;;;;5015179;28;6828;-72
2023/01/26 17:11:54;;;;;;;;;;;;;;;;;;4997509;28;8453;-72
2023/01/26 17:14:20;;;;;;;;;;;;;;;;;;5015842;28;7089;-72
2023/01/26 17:16:45;;;;;;;;;;;;;;;;;;5015301;28;7001;-72
2023/01/26 17:19:46;;;;;;;;;;;;;;;;;;5015469;28;7189;-72
2023/01/26 17:22:11;;;;;;;;;;;;;;;;;;5015132;28;7144;-72
2023/01/26 17:24:37;;;;;;;;;;;;;;;;;;5015326;28;7191;-72
2023/01/26 17:27:02;;;;;;;;;;;;;;;;;;5013991;28;7196;-72
2023/01/26 17:29:28;;;;;;;;;;;;;;;;;;5025080;28;6936;-72
2023/01/26 17:32:24;;;;;;;;;;;;;;;;;;5034863;28;7145;-72
2023/01/26 17:34:54;;;;;;;;;;;;;;;;;;5035980;28;7194;-72
2023/01/26 17:37:20;;;;;;;;;;;;;;;;;;5035608;28;7088;-72
2023/01/26 17:39:47;;;;;;;;;;;;;;;;;;5033361;28;7156;-72
2023/01/26 17:42:13;;;;;;;;;;;;;;;;;;5034779;28;7437;-72
2023/01/26 17:44:39;;;;;;;;;;;;;;;;;;5034806;28;6998;-72
2023/01/26 17:50:07;;;;;;;;;;;;;;;;;;5034481;28;6921;-72
2023/01/26 17:52:35;;;;;;;;;;;;;;;;;;5034446;28;7142;-72
2023/01/26 17:55:03;;;;;;;;;;;;;;;;;;5034428;28;8227;-72
2023/01/26 17:57:29;;;;;;;;;;;;;;;;;;5029551;28;6980;-72
2023/01/26 17:59:55;;;;;;;;;;;;;;;;;;5014875;28;6942;-72
2023/01/26 18:02:20;;;;;;;;;;;;;;;;;;5014731;28;7276;-73
2023/01/26 18:04:46;;;;;;;;;;;;;;;;;;5024539;28;7525;-72
2023/01/26 18:07:11;;;;;;;;;;;;;;;;;;5018751;28;6948;-73
2023/01/26 18:09:36;;;;;;;;;;;;;;;;;;5019699;28;7462;-72
2023/01/26 18:12:22;;;;;;;;;;;;;;;;;;5018811;28;7377;-72
2023/01/26 18:14:48;;;;;;;;;;;;;;;;;;5018777;28;7102;-72
2023/01/26 18:17:14;;;;;;;;;;;;;;;;;;5018669;28;7383;-72
2023/01/26 18:22:43;;;;;;;;;;;;;;;;;;5018222;28;6911;-72
2023/01/26 18:25:08;;;;;;;;;;;;;;;;;;5018547;28;6940;-72
2023/01/26 18:30:36;;;;;;;;;;;;;;;;;;5017961;28;6679;-72
2023/01/26 18:33:02;;;;;;;;;;;;;;;;;;5018437;28;7034;-72
2023/01/26 18:35:35;;;;;;;;;;;;;;;;;;5018309;28;7562;-72
2023/01/26 18:38:01;;;;;;;;;;;;;;;;;;5018108;28;7072;-72
2023/01/26 18:40:26;;;;;;;;;;;;;;;;;;5017136;28;7207;-72
2023/01/26 18:43:12;;;;;;;;;;;;;;;;;;5017901;28;7061;-72
2023/01/26 18:45:39;;;;;;;;;;;;;;;;;;5018775;28;6948;-72
2023/01/26 18:48:05;;;;;;;;;;;;;;;;;;5018572;28;7234;-72
2023/01/26 18:53:33;;;;;;;;;;;;;;;;;;5017752;28;6688;-72
2023/01/26 18:59:36;;;;;;;;;;;;;;;;;;5017530;28;7407;-72
2023/01/26 19:02:38;;;;;;;;;;;;;;;;;;5017803;28;7036;-72
2023/01/26 19:05:05;;;;;;;;;;;;;;;;;;5017732;28;7369;-72
2023/01/26 19:07:31;;;;;;;;;;;;;;;;;;5017900;28;8292;-72
2023/01/26 19:09:56;;;;;;;;;;;;;;;;;;5018078;28;7285;-72
2023/01/26 19:12:22;;;;;;;;;;;;;;;;;;5017522;28;7048;-72
2023/01/26 19:15:02;;;;;;;;;;;;;;;;;;5016685;28;7135;-72
2023/01/26 19:17:28;;;;;;;;;;;;;;;;;;5017543;28;7120;-72
2023/01/26 19:19:53;;;;;;;;;;;;;;;;;;5017572;28;6988;-72
2023/01/26 19:22:43;;;;;;;;;;;;;;;;;;5017425;28;7246;-72
2023/01/26 19:25:08;;;;;;;;;;;;;;;;;;5017488;28;7270;-72
2023/01/26 19:30:36;;;;;;;;;;;;;;;;;;5017011;28;6975;-72
2023/01/26 19:33:33;;;;;;;;;;;;;;;;;;5017179;28;7226;-72
2023/01/26 19:36:09;;;;;;;;;;;;;;;;;;5018125;28;7165;-72
2023/01/26 19:38:38;;;;;;;;;;;;;;;;;;5017128;28;7173;-72
2023/01/26 19:41:04;;;;;;;;;;;;;;;;;;5016523;28;7045;-72
2023/01/26 19:43:30;;;;;;;;;;;;;;;;;;5016951;28;6992;-72
2023/01/26 19:45:56;;;;;;;;;;;;;;;;;;5017472;28;7142;-72
2023/01/26 19:48:46;;;;;;;;;;;;;;;;;;5016975;28;7094;-72
2023/01/26 19:54:14;;;;;;;;;;;;;;;;;;5016913;28;6929;-72
2023/01/26 19:56:40;;;;;;;;;;;;;;;;;;5016924;28;7397;-72
2023/01/26 19:59:09;;;;;;;;;;;;;;;;;;5016786;28;6949;-72
2023/01/26 20:01:35;;;;;;;;;;;;;;;;;;5016665;28;7140;-72
2023/01/26 20:04:02;;;;;;;;;;;;;;;;;;5016683;28;7015;-72
2023/01/26 20:06:30;;;;;;;;;;;;;;;;;;5016708;28;7219;-72
2023/01/26 20:08:56;;;;;;;;;;;;;;;;;;5016548;28;7069;-72
2023/01/26 20:11:27;;;;;;;;;;;;;;;;;;5016357;28;6932;-72
2023/01/26 20:13:54;;;;;;;;;;;;;;;;;;5016274;28;7037;-72
2023/01/26 20:16:34;;;;;;;;;;;;;;;;;;5017152;28;7213;-72
2023/01/26 20:19:00;;;;;;;;;;;;;;;;;;5036480;28;7262;-72
2023/01/26 20:21:27;;;;;;;;;;;;;;;;;;5036688;28;7099;-72
2023/01/26 20:24:06;;;;;;;;;;;;;;;;;;5035836;28;7063;-72
2023/01/26 20:26:33;;;;;;;;;;;;;;;;;;5035704;28;7353;-72
2023/01/26 20:28:59;;;;;;;;;;;;;;;;;;5034107;28;6961;-72
2023/01/26 20:31:25;;;;;;;;;;;;;;;;;;5016681;28;7182;-72
2023/01/26 20:33:52;;;;;;;;;;;;;;;;;;5016131;28;7121;-72
2023/01/26 20:36:19;;;;;;;;;;;;;;;;;;5016034;28;7085;-72
2023/01/26 20:38:47;;;;;;;;;;;;;;;;;;5016041;28;7044;-72
2023/01/26 20:41:14;;;;;;;;;;;;;;;;;;5011387;28;7120;-72
2023/01/26 20:46:42;;;;;;;;;;;;;;;;;;5015750;28;6687;-73
2023/01/26 20:49:37;;;;;;;;;;;;;;;;;;5015826;28;6949;-73
2023/01/26 20:52:06;;;;;;;;;;;;;;;;;;5015594;28;6843;-72
2023/01/26 21:01:13;;;;;;;;;;;;;;;;;;5015299;28;6971;-72
2023/01/26 21:03:40;;;;;;;;;;;;;;;;;;5015619;28;7139;-72
2023/01/26 21:09:33;;;;;;;;;;;;;;;;;;5015152;28;6918;-72
2023/01/26 21:11:59;;;;;;;;;;;;;;;;;;5015283;28;7403;-72
2023/01/26 21:14:25;;;;;;;;;;;;;;;;;;5015328;28;7113;-72
2023/01/26 21:20:08;;;;;;;;;;;;;;;;;;5015042;28;6998;-72
2023/01/26 21:22:34;;;;;;;;;;;;;;;;;;5015247;28;7529;-72
2023/01/26 21:25:00;;;;;;;;;;;;;;;;;;5015209;28;7363;-72
2023/01/26 21:30:54;;;;;;;;;;;;;;;;;;5014795;28;6927;-72
2023/01/26 21:33:19;;;;;;;;;;;;;;;;;;5014684;28;8915;-72
2023/01/26 21:35:53;;;;;;;;;;;;;;;;;;5030535;28;7387;-72
2023/01/26 21:38:19;;;;;;;;;;;;;;;;;;5034364;28;7107;-72
2023/01/26 21:40:44;;;;;;;;;;;;;;;;;;5026748;28;7131;-72
2023/01/26 21:43:10;;;;;;;;;;;;;;;;;;5021943;28;7138;-72
2023/01/26 21:48:38;;;;;;;;;;;;;;;;;;5026133;28;6801;-72
2023/01/26 21:54:06;;;;;;;;;;;;;;;;;;5052768;23;6753;-72
2023/01/26 21:56:33;;;;;;;;;;;;;;;;;;5014098;28;6976;-72
2023/01/26 21:59:03;;;;;;;;;;;;;;;;;;5014629;28;6969;-72
2023/01/26 22:01:30;;;;;;;;;;;;;;;;;;5009831;28;6985;-72
2023/01/26 22:04:23;;;;;;;;;;;;;;;;;;5014554;28;7183;-72
2023/01/26 22:06:50;;;;;;;;;;;;;;;;;;5014631;28;7168;-72
2023/01/26 22:09:17;;;;;;;;;;;;;;;;;;5014958;28;7168;-72
2023/01/26 22:14:51;;;;;;;;;;;;;;;;;;5014343;28;6854;-72